»·PEaware :: N921VN KFLG-KGCN

N921VN :: KFLG-KGCN

FLIGHT INFORMATION

Flight Status: Arrived
Operator: Privately registered:
United States
More flights under this callsign
Pilot: Kevin M. (7)
Aircraft: CESSNA 172 SKYHAWK
(C172)
More flights by this aircraft type
Origin: KFLG Flagstaff Pulliam
United States
Destination: KGCN Grand Canyon Natl Park
United States
More flights between these airports :: More routes between these airports
Route:
File this flight plan on PilotEdge
Remarks: alphabet challenge
Altitude:
(Current/Filed)
8,500ft
Speed:
(Current/Filed)
140kts
Departed: 30-Sep-20 09:09 AM
Arrived: 30-Sep-20 09:48 AM
Distance/Time
Traveled:
54nm/0:39
Distance/Time
To Go:
Arrived

Flight Plot

Page will automatically refresh every two minutes.

Flight plan parsing failed; only flown route is shown


Map Options




Map Legend


Flown Route
Filed Route
Departure Airport
Arrival Airport
Navaid (VOR, NDB)
Fix

Horizontal Profiles

Position Reports

Time Latitude Longitude Heading Altitude Ground
Speed
30-Sep-20 08:57 35.137647 -111.674744 127 7010ft 0kts
30-Sep-20 08:58 35.137647 -111.674744 127 7010ft 0kts
30-Sep-20 08:59 35.137647 -111.674744 127 7010ft 0kts
30-Sep-20 09:00 35.137647 -111.674744 127 7010ft 0kts
30-Sep-20 09:01 35.137647 -111.674744 127 7010ft 0kts
30-Sep-20 09:03 35.137647 -111.674744 127 7010ft 0kts
30-Sep-20 09:04 35.137647 -111.674744 127 7010ft 0kts
30-Sep-20 09:05 35.137647 -111.674744 127 7010ft 0kts
30-Sep-20 09:06 35.136737 -111.674842 220 7013ft 19kts
30-Sep-20 09:07 35.131891 -111.679683 142 7014ft 0kts
30-Sep-20 09:08 35.131891 -111.679683 142 7014ft 0kts
30-Sep-20 09:09 35.133705 -111.676219 42 7014ft 54kts
30-Sep-20 09:10 35.149806 -111.659063 25 7432ft 72kts
30-Sep-20 09:11 35.157638 -111.671507 247 7837ft 78kts
30-Sep-20 09:12 35.163272 -111.695134 280 8299ft 73kts
30-Sep-20 09:13 35.180721 -111.711837 333 8658ft 84kts
30-Sep-20 09:14 35.194902 -111.735585 314 9051ft 90kts
30-Sep-20 09:15 35.213998 -111.753480 282 9435ft 93kts
30-Sep-20 09:16 35.224739 -111.784367 292 9731ft 101kts
30-Sep-20 09:17 35.235203 -111.816641 292 10033ft 102kts
30-Sep-20 09:18 35.245577 -111.848886 292 10328ft 101kts
30-Sep-20 09:19 35.255963 -111.881087 292 10509ft 108kts
30-Sep-20 09:19 35.262724 -111.911289 281 10595ft 112kts
30-Sep-20 09:21 35.270281 -111.955713 282 10635ft 116kts
30-Sep-20 09:22 35.276938 -111.994865 282 10634ft 118kts
30-Sep-20 09:22 35.282562 -112.027508 282 10633ft 117kts
30-Sep-20 09:24 35.290862 -112.073054 301 10624ft 118kts
30-Sep-20 09:24 35.306304 -112.100295 302 10632ft 117kts
30-Sep-20 09:25 35.325084 -112.132594 322 10634ft 116kts
30-Sep-20 09:26 35.350793 -112.156669 331 10636ft 116kts
30-Sep-20 09:27 35.381420 -112.168531 2 10632ft 116kts
30-Sep-20 09:28 35.413595 -112.167304 2 10633ft 115kts
30-Sep-20 09:29 35.445805 -112.166101 2 10636ft 115kts
30-Sep-20 09:30 35.478043 -112.164991 2 10632ft 115kts
30-Sep-20 09:31 35.510121 -112.163934 2 10638ft 115kts
30-Sep-20 09:32 35.542430 -112.162848 2 10638ft 115kts
30-Sep-20 09:33 35.574660 -112.161751 2 10638ft 116kts
30-Sep-20 09:34 35.606991 -112.160582 2 10639ft 116kts
30-Sep-20 09:35 35.639393 -112.159421 2 10639ft 116kts
30-Sep-20 09:36 35.671648 -112.158241 2 10640ft 116kts
30-Sep-20 09:37 35.703778 -112.154739 12 10641ft 116kts
30-Sep-20 09:38 35.735410 -112.146522 12 10641ft 116kts
30-Sep-20 09:39 35.767127 -112.138263 12 10640ft 116kts
30-Sep-20 09:40 35.798693 -112.130092 12 10641ft 116kts
30-Sep-20 09:41 35.830754 -112.124693 2 10641ft 116kts
30-Sep-20 09:42 35.863378 -112.128827 344 10494ft 124kts
30-Sep-20 09:43 35.896596 -112.140754 343 10248ft 127kts
30-Sep-20 09:44 35.930024 -112.151469 344 10096ft 122kts
30-Sep-20 09:45 35.966910 -112.149252 26 8602ft 142kts
30-Sep-20 09:46 35.974112 -112.124045 201 7434ft 119kts
30-Sep-20 09:47 35.955153 -112.143992 212 6587ft 31kts
30-Sep-20 09:48 35.953518 -112.144212 116 6582ft 0kts
30-Sep-20 09:49 35.954032 -112.143106 141 6585ft 0kts
30-Sep-20 09:50 35.954032 -112.143106 141 6585ft 0kts
30-Sep-20 09:51 35.954032 -112.143106 141 6585ft 0kts
30-Sep-20 09:52 35.954032 -112.143106 141 6585ft 0kts
30-Sep-20 09:53 35.954032 -112.143106 141 6585ft 0kts
30-Sep-20 09:54 35.954032 -112.143106 141 6585ft 0kts
30-Sep-20 09:55 35.954032 -112.143106 141 6585ft 0kts
30-Sep-20 09:56 35.954032 -112.143106 141 6585ft 0kts
30-Sep-20 09:57 35.954032 -112.143106 141 6585ft 0kts
30-Sep-20 09:58 35.954032 -112.143106 141 6585ft 0kts
30-Sep-20 09:59 35.954032 -112.143106 141 6585ft 0kts
30-Sep-20 10:00 35.954032 -112.143106 141 6585ft 0kts
30-Sep-20 10:01 35.954032 -112.143106 141 6585ft 0kts
30-Sep-20 10:02 35.954032 -112.143106 141 6585ft 0kts

Navigation Log

Ident Type
Flight plan parsing failed, navigation log unavailable